createdAt,value
2022-08-21T00:01:33.242Z,12.57
2022-08-21T00:04:04.495Z,11.57
2022-08-21T00:06:31.930Z,11.37
2022-08-21T00:09:00.813Z,11.73
2022-08-21T00:11:29.507Z,10.37
2022-08-21T00:13:56.194Z,10.93
2022-08-21T00:16:22.659Z,11.13
2022-08-21T00:18:49.375Z,9.97
2022-08-21T00:21:16.540Z,10.23
2022-08-21T00:23:43.043Z,8.63
2022-08-21T00:26:09.763Z,9.03
2022-08-21T00:28:36.218Z,8.10
2022-08-21T00:31:04.924Z,8.77
2022-08-21T00:33:31.584Z,9.00
2022-08-21T00:35:57.979Z,8.80
2022-08-21T00:38:24.407Z,8.30
2022-08-21T00:40:52.413Z,8.60
2022-08-21T00:43:21.746Z,8.17
2022-08-21T00:45:48.581Z,8.43
2022-08-21T00:48:15.056Z,7.33
2022-08-21T00:50:46.028Z,8.23
2022-08-21T00:53:14.020Z,7.97
2022-08-21T00:55:40.953Z,8.80
2022-08-21T00:58:09.155Z,8.17
2022-08-21T01:00:39.549Z,9.03
2022-08-21T01:03:07.538Z,8.83
2022-08-21T01:05:36.029Z,7.93
2022-08-21T01:08:02.639Z,8.37
2022-08-21T01:10:29.095Z,7.53
2022-08-21T01:12:57.196Z,7.73
2022-08-21T01:15:29.530Z,7.70
2022-08-21T01:17:55.894Z,7.20
2022-08-21T01:20:22.326Z,7.77
2022-08-21T01:22:59.334Z,7.03
2022-08-21T01:25:25.911Z,7.57
2022-08-21T01:27:52.299Z,7.17
2022-08-21T01:30:24.148Z,7.00
2022-08-21T01:32:50.806Z,6.93
2022-08-21T01:35:17.842Z,6.63
2022-08-21T01:37:44.522Z,6.60
2022-08-21T01:40:11.664Z,7.03
2022-08-21T01:42:38.613Z,7.27
2022-08-21T01:45:05.763Z,6.47
2022-08-21T01:47:32.250Z,6.77
2022-08-21T01:49:58.690Z,6.20
2022-08-21T01:52:25.135Z,6.70
2022-08-21T01:54:55.631Z,6.23
2022-08-21T01:57:22.710Z,6.43
2022-08-21T01:59:53.017Z,6.90
2022-08-21T02:02:19.523Z,6.43
2022-08-21T02:04:45.956Z,6.90
2022-08-21T02:07:12.443Z,6.43
2022-08-21T02:09:40.247Z,6.47
2022-08-21T02:12:06.898Z,7.03
2022-08-21T02:14:33.355Z,7.57
2022-08-21T02:17:08.783Z,6.70
2022-08-21T02:19:37.840Z,6.80
2022-08-21T02:22:07.109Z,6.37
2022-08-21T02:24:33.837Z,7.77
2022-08-21T02:27:00.251Z,7.43
2022-08-21T02:29:26.678Z,6.97
2022-08-21T02:31:54.087Z,6.60
2022-08-21T02:34:20.462Z,6.80
2022-08-21T02:36:46.970Z,6.03
2022-08-21T02:39:26.951Z,6.83
2022-08-21T02:41:53.881Z,6.50
2022-08-21T02:44:20.286Z,5.93
2022-08-21T02:46:46.671Z,5.43
2022-08-21T02:49:13.109Z,5.00
2022-08-21T02:51:39.576Z,5.10
2022-08-21T02:54:06.043Z,5.77
2022-08-21T02:56:32.471Z,5.77
2022-08-21T02:58:58.885Z,6.80
2022-08-21T03:01:26.022Z,5.30
2022-08-21T03:03:52.591Z,5.93
2022-08-21T03:06:19.949Z,5.57
2022-08-21T03:08:46.558Z,5.80
2022-08-21T03:11:13.791Z,5.23
2022-08-21T03:13:40.233Z,6.00
2022-08-21T03:16:10.109Z,5.57
2022-08-21T03:18:37.231Z,5.33
2022-08-21T03:21:04.446Z,6.30
2022-08-21T03:23:32.635Z,5.43
2022-08-21T03:25:59.487Z,5.70
2022-08-21T03:28:25.922Z,5.63
2022-08-21T03:30:52.805Z,5.20
2022-08-21T03:33:20.664Z,5.47
2022-08-21T03:35:52.316Z,5.73
2022-08-21T03:38:21.297Z,4.97
2022-08-21T03:40:49.749Z,5.33
2022-08-21T03:43:16.210Z,5.67
2022-08-21T03:45:42.687Z,6.87
2022-08-21T03:48:10.296Z,6.53
2022-08-21T03:50:40.803Z,5.97
2022-08-21T03:53:08.039Z,5.87
2022-08-21T03:55:43.946Z,5.23
2022-08-21T03:58:16.570Z,4.87
2022-08-21T04:00:44.419Z,5.17
2022-08-21T04:03:10.791Z,4.97
2022-08-21T04:05:38.197Z,4.43
2022-08-21T04:08:05.421Z,4.80
2022-08-21T04:10:33.402Z,4.87
2022-08-21T04:12:59.942Z,4.33
2022-08-21T04:15:27.096Z,4.57
2022-08-21T04:17:53.658Z,4.27
2022-08-21T04:20:20.437Z,4.50
2022-08-21T04:22:46.901Z,5.23
2022-08-21T04:25:14.202Z,5.37
2022-08-21T04:27:41.303Z,4.90
2022-08-21T04:30:08.080Z,4.53
2022-08-21T04:32:34.455Z,4.57
2022-08-21T04:35:02.114Z,4.37
2022-08-21T04:37:28.568Z,4.40
2022-08-21T04:39:57.590Z,4.53
2022-08-21T04:42:24.839Z,4.70
2022-08-21T04:44:51.374Z,4.30
2022-08-21T04:47:17.890Z,5.10
2022-08-21T04:49:44.757Z,4.30
2022-08-21T04:52:11.318Z,3.80
2022-08-21T04:54:38.002Z,5.13
2022-08-21T04:57:08.239Z,4.30
2022-08-21T04:59:37.349Z,4.70
2022-08-21T05:02:04.293Z,4.20
2022-08-21T05:04:34.040Z,3.77
2022-08-21T05:07:02.594Z,4.20
2022-08-21T05:09:29.514Z,3.87
2022-08-21T05:11:56.482Z,3.87
2022-08-21T05:14:22.876Z,3.73
2022-08-21T05:16:49.352Z,3.87
2022-08-21T05:19:15.799Z,3.90
2022-08-21T05:21:43.391Z,3.60
2022-08-21T05:24:10.132Z,3.60
2022-08-21T05:26:45.234Z,3.13
2022-08-21T05:29:13.591Z,3.00
2022-08-21T05:31:40.101Z,2.70
2022-08-21T05:34:07.261Z,3.13
2022-08-21T05:36:33.618Z,2.73
2022-08-21T05:39:00.052Z,2.80
2022-08-21T05:41:26.464Z,3.13
2022-08-21T05:43:52.859Z,2.93
2022-08-21T05:46:19.280Z,2.87
2022-08-21T05:48:45.721Z,2.40
2022-08-21T05:51:13.664Z,2.90
2022-08-21T05:53:40.906Z,2.60
2022-08-21T05:56:07.931Z,3.03
2022-08-21T05:58:34.768Z,2.57
2022-08-21T06:01:02.243Z,2.97
2022-08-21T06:03:30.372Z,2.60
2022-08-21T06:05:56.806Z,2.53
2022-08-21T06:08:23.520Z,2.23
2022-08-21T06:10:51.420Z,2.70
2022-08-21T06:13:18.412Z,2.70
2022-08-21T06:15:45.219Z,2.40
2022-08-21T06:18:12.053Z,2.67
2022-08-21T06:20:38.887Z,2.90
2022-08-21T06:23:05.307Z,2.30
2022-08-21T06:25:31.947Z,2.40
2022-08-21T06:28:08.965Z,2.40
2022-08-21T06:30:37.080Z,2.10
2022-08-21T06:33:03.740Z,2.23
2022-08-21T06:35:30.217Z,1.77
2022-08-21T06:37:57.099Z,1.93
2022-08-21T06:40:23.628Z,2.00
2022-08-21T06:42:51.608Z,2.00
2022-08-21T06:45:18.124Z,2.30
2022-08-21T06:47:44.588Z,2.10
2022-08-21T06:50:11.059Z,2.37
2022-08-21T06:52:38.087Z,2.00
2022-08-21T06:55:08.946Z,1.73
2022-08-21T06:57:36.046Z,1.83
2022-08-21T07:00:05.609Z,1.70
2022-08-21T07:02:34.204Z,1.77
2022-08-21T07:05:00.630Z,1.90
2022-08-21T07:07:27.047Z,6.33
2022-08-21T07:09:53.463Z,7.33
2022-08-21T07:12:20.235Z,2.80
2022-08-21T07:14:46.693Z,2.03
2022-08-21T07:17:13.138Z,1.90
2022-08-21T07:19:39.539Z,2.03
2022-08-21T07:22:05.999Z,2.00
2022-08-21T07:24:32.505Z,1.83
2022-08-21T07:26:58.934Z,1.57
2022-08-21T07:29:25.400Z,1.77
2022-08-21T07:31:51.869Z,1.70
2022-08-21T07:34:18.347Z,1.73
2022-08-21T07:36:44.806Z,1.97
2022-08-21T07:39:11.622Z,1.80
2022-08-21T07:41:38.619Z,2.03
2022-08-21T07:44:05.004Z,1.80
2022-08-21T07:46:33.240Z,1.87
2022-08-21T07:48:59.629Z,2.00
2022-08-21T07:51:27.891Z,1.70
2022-08-21T07:53:55.661Z,2.00
2022-08-21T07:56:22.531Z,2.03
2022-08-21T07:58:48.947Z,1.37
2022-08-21T08:01:15.661Z,1.70
2022-08-21T08:03:42.098Z,3.50
2022-08-21T08:06:13.114Z,19.93
2022-08-21T08:08:40.671Z,2.97
2022-08-21T08:11:07.190Z,2.13
2022-08-21T08:13:38.899Z,2.03
2022-08-21T08:16:05.479Z,1.80
2022-08-21T08:18:31.886Z,2.10
2022-08-21T08:20:58.270Z,2.30
2022-08-21T08:23:24.689Z,1.80
2022-08-21T08:25:51.195Z,2.30
2022-08-21T08:28:17.976Z,2.00
2022-08-21T08:30:45.337Z,1.40
2022-08-21T08:33:11.713Z,1.77
2022-08-21T08:35:39.032Z,1.60
2022-08-21T08:38:05.679Z,1.90
2022-08-21T08:40:53.339Z,1.93
2022-08-21T08:43:19.819Z,1.90
2022-08-21T08:45:48.836Z,1.97
2022-08-21T08:48:18.290Z,1.63
2022-08-21T08:50:49.408Z,4.30
2022-08-21T08:53:18.305Z,2.00
2022-08-21T08:55:45.966Z,2.70
2022-08-21T08:58:23.337Z,2.00
2022-08-21T09:00:52.216Z,1.93
2022-08-21T09:03:18.925Z,2.37
2022-08-21T09:05:45.324Z,2.17
2022-08-21T09:08:23.694Z,2.60
2022-08-21T09:11:05.246Z,2.13
2022-08-21T09:13:50.450Z,2.13
2022-08-21T09:16:17.250Z,2.73
2022-08-21T09:18:52.734Z,2.27
2022-08-21T09:21:28.084Z,1.67
2022-08-21T09:24:00.559Z,2.30
2022-08-21T09:26:31.112Z,1.70
2022-08-21T09:28:59.020Z,2.13
2022-08-21T09:31:25.489Z,2.33
2022-08-21T09:33:58.254Z,2.30
2022-08-21T09:37:00.581Z,2.20
2022-08-21T09:39:40.199Z,2.37
2022-08-21T09:42:08.677Z,1.90
2022-08-21T09:44:40.876Z,6.20
2022-08-21T09:47:08.062Z,6.90
2022-08-21T09:49:36.712Z,2.47
2022-08-21T09:52:04.372Z,2.42
2022-08-21T09:54:39.644Z,2.30
2022-08-21T09:57:32.307Z,2.30
2022-08-21T10:00:08.251Z,2.10
2022-08-21T10:02:37.153Z,2.00
2022-08-21T10:05:08.099Z,2.25
2022-08-21T10:07:37.526Z,2.10
2022-08-21T10:10:15.411Z,2.10
2022-08-21T10:12:50.098Z,2.40
2022-08-21T10:15:25.368Z,2.17
2022-08-21T10:17:55.681Z,2.17
2022-08-21T10:20:25.146Z,2.72
2022-08-21T10:23:08.527Z,3.38
2022-08-21T10:25:34.886Z,2.00
2022-08-21T10:28:04.273Z,1.93
2022-08-21T10:30:33.653Z,1.80
2022-08-21T10:33:03.096Z,2.17
2022-08-21T10:35:33.177Z,1.70
2022-08-21T10:38:04.170Z,1.67
2022-08-21T10:40:35.445Z,1.60
2022-08-21T10:43:15.401Z,2.13
2022-08-21T10:45:54.634Z,1.95
2022-08-21T10:48:31.070Z,2.00
2022-08-21T10:51:03.619Z,2.05
2022-08-21T10:53:37.120Z,1.85
2022-08-21T10:56:12.270Z,1.50
2022-08-21T10:58:41.346Z,1.90
2022-08-21T11:01:40.720Z,1.90
2022-08-21T11:04:21.600Z,1.67
2022-08-21T11:06:50.923Z,1.35
2022-08-21T11:09:19.812Z,1.83
2022-08-21T11:11:59.113Z,1.45
2022-08-21T11:14:49.904Z,1.90
2022-08-21T11:17:21.951Z,1.55
2022-08-21T11:20:00.533Z,1.67
2022-08-21T11:22:29.595Z,1.38
2022-08-21T11:25:04.594Z,1.60
2022-08-21T11:27:40.016Z,1.40
2022-08-21T11:30:06.872Z,1.65
2022-08-21T11:32:56.013Z,1.60
2022-08-21T11:35:25.482Z,1.73
2022-08-21T11:37:58.050Z,1.25
2022-08-21T11:40:39.699Z,1.50
2022-08-21T11:43:06.101Z,1.90
2022-08-21T11:45:39.214Z,1.60
2022-08-21T11:48:05.613Z,1.90
2022-08-21T11:50:36.126Z,1.60
2022-08-21T11:53:23.000Z,1.70
2022-08-21T11:56:08.349Z,1.40
2022-08-21T11:58:42.901Z,1.67
2022-08-21T12:01:16.945Z,1.50
2022-08-21T12:04:18.978Z,1.48
2022-08-21T12:06:45.495Z,1.88
2022-08-21T12:09:26.715Z,1.20
2022-08-21T12:12:01.981Z,1.23
2022-08-21T12:14:42.948Z,2.05
2022-08-21T12:17:10.328Z,1.40
2022-08-21T12:19:42.078Z,1.48
2022-08-21T12:22:14.956Z,0.90
2022-08-21T12:24:45.569Z,1.42
2022-08-21T12:27:26.680Z,1.77
2022-08-21T12:29:55.625Z,1.63
2022-08-21T12:32:26.616Z,1.30
2022-08-21T12:35:02.989Z,1.50
2022-08-21T12:37:35.177Z,1.33
2022-08-21T12:40:03.609Z,1.45
2022-08-21T12:42:33.126Z,1.20
2022-08-21T12:45:12.203Z,1.17
2022-08-21T12:48:05.036Z,1.35
2022-08-21T12:50:51.469Z,1.30
2022-08-21T12:53:29.926Z,1.20
2022-08-21T12:56:02.228Z,1.75
2022-08-21T12:58:28.753Z,1.30
2022-08-21T13:01:06.283Z,1.17
2022-08-21T13:03:34.759Z,1.00
2022-08-21T13:06:01.232Z,1.15
2022-08-21T13:08:28.738Z,0.82
2022-08-21T13:11:14.947Z,0.95
2022-08-21T13:13:47.031Z,1.15
2022-08-21T13:16:20.632Z,1.02
2022-08-21T13:18:59.643Z,1.10
2022-08-21T13:21:35.187Z,1.42
2022-08-21T13:24:41.397Z,1.40
2022-08-21T13:27:30.008Z,0.95
2022-08-21T13:30:05.006Z,0.98
2022-08-21T13:32:32.749Z,0.88
2022-08-21T13:35:00.934Z,1.15
2022-08-21T13:37:27.776Z,1.10
2022-08-21T13:39:54.305Z,0.95
2022-08-21T13:42:21.197Z,0.93
2022-08-21T13:44:48.811Z,0.80
2022-08-21T13:47:17.344Z,0.85
2022-08-21T13:49:45.310Z,0.90
2022-08-21T13:52:20.377Z,1.00
2022-08-21T13:54:53.055Z,1.05
2022-08-21T13:57:21.070Z,0.98
2022-08-21T13:59:47.562Z,1.60
2022-08-21T14:02:18.481Z,1.10
2022-08-21T14:04:55.790Z,1.00
2022-08-21T14:07:26.953Z,1.40
2022-08-21T14:09:53.622Z,1.30
2022-08-21T14:12:39.161Z,1.50
2022-08-21T14:15:06.658Z,1.50
2022-08-21T14:17:36.258Z,1.27
2022-08-21T14:20:05.478Z,2.58
2022-08-21T14:22:37.630Z,1.30
2022-08-21T14:25:12.878Z,1.40
2022-08-21T14:28:02.171Z,1.10
2022-08-21T14:30:37.584Z,1.17
2022-08-21T14:33:05.073Z,1.10
2022-08-21T14:35:32.096Z,1.58
2022-08-21T14:37:58.708Z,1.60
2022-08-21T14:40:25.803Z,7.45
2022-08-21T14:42:52.699Z,2.50
2022-08-21T14:45:29.310Z,1.55
2022-08-21T14:47:56.872Z,1.60
2022-08-21T14:50:23.345Z,1.45
2022-08-21T14:52:54.318Z,1.40
2022-08-21T14:55:20.729Z,1.30
2022-08-21T14:57:48.706Z,1.20
2022-08-21T15:00:18.001Z,1.70
2022-08-21T15:02:44.978Z,1.00
2022-08-21T15:05:11.939Z,1.30
2022-08-21T15:07:39.158Z,1.35
2022-08-21T15:10:06.577Z,1.05
2022-08-21T15:12:36.299Z,1.40
2022-08-21T15:15:03.024Z,1.50
2022-08-21T15:17:29.485Z,1.10
2022-08-21T15:19:55.986Z,1.02
2022-08-21T15:22:27.629Z,1.00
2022-08-21T15:24:54.550Z,0.90
2022-08-21T15:27:21.014Z,0.90
2022-08-21T15:29:47.458Z,0.70
2022-08-21T15:32:18.453Z,1.02
2022-08-21T15:34:44.898Z,0.80
2022-08-21T15:37:11.354Z,0.65
2022-08-21T15:39:39.660Z,0.85
2022-08-21T15:42:10.856Z,1.00
2022-08-21T15:44:38.198Z,0.90
2022-08-21T15:47:04.818Z,1.20
2022-08-21T15:49:31.486Z,1.00
2022-08-21T15:51:57.985Z,1.10
2022-08-21T15:54:24.402Z,5.00
2022-08-21T15:56:51.529Z,1.25
2022-08-21T15:59:19.298Z,1.00
2022-08-21T16:01:46.103Z,1.30
2022-08-21T16:04:16.374Z,0.90
2022-08-21T16:06:54.091Z,1.35
2022-08-21T16:09:22.370Z,1.20
2022-08-21T16:11:48.765Z,0.85
2022-08-21T16:14:16.242Z,1.15
2022-08-21T16:16:42.897Z,0.93
2022-08-21T16:19:10.225Z,0.98
2022-08-21T16:21:36.650Z,0.88
2022-08-21T16:24:03.450Z,1.02
2022-08-21T16:26:30.102Z,1.00
2022-08-21T16:28:58.612Z,1.00
2022-08-21T16:31:25.429Z,1.10
2022-08-21T16:33:53.511Z,0.80
2022-08-21T16:36:26.229Z,1.10
2022-08-21T16:38:54.612Z,0.75
2022-08-21T16:41:22.949Z,0.80
2022-08-21T16:43:50.234Z,0.98
2022-08-21T16:46:16.789Z,0.90
2022-08-21T16:48:45.038Z,1.40
2022-08-21T16:51:12.546Z,9.07
2022-08-21T16:53:39.023Z,1.63
2022-08-21T16:56:06.925Z,1.42
2022-08-21T16:58:34.741Z,1.40
2022-08-21T17:01:03.756Z,1.10
2022-08-21T17:03:32.444Z,1.20
2022-08-21T17:05:58.823Z,0.82
2022-08-21T17:08:25.249Z,0.98
2022-08-21T17:10:51.929Z,0.80
2022-08-21T17:13:18.564Z,1.08
2022-08-21T17:15:45.442Z,1.58
2022-08-21T17:18:13.615Z,1.08
2022-08-21T17:20:40.722Z,1.20
2022-08-21T17:23:07.360Z,1.10
2022-08-21T17:25:34.168Z,1.40
2022-08-21T17:28:00.803Z,1.35
2022-08-21T17:30:27.254Z,1.30
2022-08-21T17:32:55.412Z,1.08
2022-08-21T17:35:21.854Z,1.48
2022-08-21T17:37:48.286Z,1.50
2022-08-21T17:40:15.463Z,1.80
2022-08-21T17:42:42.968Z,1.65
2022-08-21T17:45:11.373Z,1.50
2022-08-21T17:47:38.371Z,1.42
2022-08-21T17:50:05.874Z,1.65
2022-08-21T17:52:32.254Z,1.58
2022-08-21T17:54:58.679Z,1.42
2022-08-21T17:57:28.151Z,1.30
2022-08-21T17:59:58.292Z,1.30
2022-08-21T18:02:25.083Z,1.15
2022-08-21T18:04:51.562Z,1.60
2022-08-21T18:07:32.000Z,1.58
2022-08-21T18:10:00.235Z,1.15
2022-08-21T18:12:26.731Z,1.33
2022-08-21T18:14:53.279Z,1.85
2022-08-21T18:17:21.291Z,1.30
2022-08-21T18:19:49.422Z,1.40
2022-08-21T18:22:16.045Z,1.52
2022-08-21T18:24:43.787Z,1.52
2022-08-21T18:27:10.474Z,6.88
2022-08-21T18:29:47.089Z,3.20
2022-08-21T18:32:30.352Z,1.70
2022-08-21T18:34:59.291Z,2.03
2022-08-21T18:37:25.804Z,1.70
2022-08-21T18:39:52.284Z,1.70
2022-08-21T18:42:18.838Z,1.87
2022-08-21T18:44:49.290Z,2.00
2022-08-21T18:47:22.730Z,2.20
2022-08-21T18:49:49.101Z,1.70
2022-08-21T18:52:20.402Z,1.53
2022-08-21T18:54:49.602Z,2.93
2022-08-21T18:57:16.702Z,3.83
2022-08-21T18:59:43.798Z,2.50
2022-08-21T19:02:10.282Z,2.40
2022-08-21T19:04:44.219Z,2.27
2022-08-21T19:07:13.681Z,2.10
2022-08-21T19:09:40.798Z,1.80
2022-08-21T19:12:09.474Z,2.03
2022-08-21T19:14:39.147Z,2.20
2022-08-21T19:17:05.659Z,2.00
2022-08-21T19:19:32.054Z,1.80
2022-08-21T19:21:58.692Z,2.20
2022-08-21T19:24:26.379Z,1.87
2022-08-21T19:26:55.807Z,19.30
2022-08-21T19:29:22.282Z,8.23
2022-08-21T19:32:04.170Z,2.77
2022-08-21T19:34:31.081Z,2.10
2022-08-21T19:36:57.762Z,2.20
2022-08-21T19:39:24.470Z,2.40
2022-08-21T19:41:56.105Z,1.80
2022-08-21T19:44:24.738Z,2.10
2022-08-21T19:46:52.666Z,2.43
2022-08-21T19:49:21.063Z,2.60
2022-08-21T19:51:49.294Z,2.30
2022-08-21T19:54:17.689Z,2.40
2022-08-21T19:56:45.254Z,2.57
2022-08-21T19:59:15.210Z,2.30
2022-08-21T20:01:44.671Z,2.40
2022-08-21T20:04:19.241Z,2.30
2022-08-21T20:06:46.104Z,1.97
2022-08-21T20:09:14.174Z,2.30
2022-08-21T20:11:43.208Z,2.10
2022-08-21T20:14:11.020Z,2.20
2022-08-21T20:16:37.913Z,2.03
2022-08-21T20:19:07.957Z,2.20
2022-08-21T20:21:43.290Z,2.43
2022-08-21T20:24:10.999Z,2.53
2022-08-21T20:26:42.757Z,2.23
2022-08-21T20:29:15.742Z,2.77
2022-08-21T20:31:42.830Z,2.10
2022-08-21T20:34:09.674Z,2.60
2022-08-21T20:36:36.323Z,2.70
2022-08-21T20:39:03.571Z,2.37
2022-08-21T20:41:30.538Z,4.77
2022-08-21T20:43:57.989Z,3.33
2022-08-21T20:46:25.517Z,2.57
2022-08-21T20:48:52.477Z,2.33
2022-08-21T20:51:28.290Z,2.43
2022-08-21T20:54:03.541Z,2.30
2022-08-21T20:56:44.864Z,2.27
2022-08-21T20:59:18.589Z,2.87
2022-08-21T21:01:47.840Z,2.00
2022-08-21T21:04:32.465Z,2.00
2022-08-21T21:06:59.738Z,2.40
2022-08-21T21:09:34.535Z,1.80
2022-08-21T21:12:09.486Z,2.67
2022-08-21T21:14:44.982Z,2.43
2022-08-21T21:20:21.114Z,2.47
2022-08-21T21:22:58.246Z,2.53
2022-08-21T21:25:39.941Z,2.90
2022-08-21T21:28:43.907Z,2.40
2022-08-21T21:31:10.894Z,2.10
2022-08-21T21:33:39.213Z,2.37
2022-08-21T21:36:08.794Z,2.60
2022-08-21T21:41:31.415Z,2.70
2022-08-21T21:44:00.764Z,2.10
2022-08-21T21:46:39.229Z,2.20
2022-08-21T21:49:11.855Z,2.40
2022-08-21T21:51:41.309Z,2.33
2022-08-21T21:54:27.005Z,2.33
2022-08-21T21:56:56.601Z,2.17
2022-08-21T21:59:23.226Z,2.43
2022-08-21T22:02:04.663Z,2.30
2022-08-21T22:04:37.488Z,2.90
2022-08-21T22:07:09.110Z,2.70
2022-08-21T22:09:38.652Z,2.40
2022-08-21T22:12:08.117Z,2.10
2022-08-21T22:14:40.159Z,2.67
2022-08-21T22:17:09.500Z,2.30
2022-08-21T22:19:38.787Z,2.40
2022-08-21T22:22:07.721Z,2.60
2022-08-21T22:24:38.668Z,2.73
2022-08-21T22:27:08.673Z,2.43
2022-08-21T22:29:53.364Z,2.27
2022-08-21T22:32:26.088Z,2.30
2022-08-21T22:35:03.310Z,2.53
2022-08-21T22:37:40.258Z,2.57
2022-08-21T22:40:27.024Z,2.03
2022-08-21T22:42:58.522Z,2.40
2022-08-21T22:45:25.050Z,2.20
2022-08-21T22:47:52.606Z,2.23
2022-08-21T22:50:28.525Z,3.00
2022-08-21T22:52:56.998Z,2.30
2022-08-21T22:55:25.391Z,2.70
2022-08-21T22:58:20.863Z,2.20
2022-08-21T23:00:47.286Z,2.53
2022-08-21T23:03:34.705Z,2.63
2022-08-21T23:06:03.141Z,2.50
2022-08-21T23:08:39.368Z,2.70
2022-08-21T23:11:17.885Z,2.40
2022-08-21T23:13:45.731Z,3.00
2022-08-21T23:16:18.754Z,2.20
2022-08-21T23:18:54.198Z,2.47
2022-08-21T23:21:26.010Z,2.90
2022-08-21T23:24:19.224Z,2.10
2022-08-21T23:26:46.830Z,2.50
2022-08-21T23:29:28.129Z,3.00
2022-08-21T23:32:00.366Z,2.90
2022-08-21T23:34:46.634Z,3.00
2022-08-21T23:37:49.059Z,2.20
2022-08-21T23:40:35.098Z,2.77
2022-08-21T23:43:02.234Z,2.47
2022-08-21T23:45:52.461Z,2.40
2022-08-21T23:48:29.439Z,2.43
2022-08-21T23:51:16.585Z,2.23
2022-08-21T23:53:50.475Z,2.40
2022-08-21T23:56:19.779Z,2.30
2022-08-21T23:58:50.335Z,2.77
